Terminal Aerodrome Forecast
Issued by NWS

Home | Current Version | Previous Version | Text Only | Print | Product List | Glossary On
Versions: 1 2 3 4 5 6 7 8 9 10 11 12 13 14 15 16
697
FTUS43 KPAH 261609 AAB
TAFCGI
TAF AMD
KCGI 261609Z 2616/2712 24013G20KT P6SM OVC040
     FM261700 22012G20KT P6SM BKN050
     FM262300 17004KT P6SM SCT040 BKN250
     FM271000 15005KT P6SM VCSH BKN050=

USA.gov is the U.S. government's official web portal to all federal, state and local government web resources and services.